createdAt,value
2019-03-08T00:01:59.119Z,22.38
2019-03-08T00:04:29.452Z,22.38
2019-03-08T00:06:59.827Z,22.39
2019-03-08T00:09:30.118Z,22.38
2019-03-08T00:12:00.420Z,22.39
2019-03-08T00:14:30.961Z,22.38
2019-03-08T00:17:01.308Z,22.38
2019-03-08T00:19:31.626Z,22.39
2019-03-08T00:22:01.933Z,22.36
2019-03-08T00:24:32.226Z,22.36
2019-03-08T00:27:02.688Z,22.36
2019-03-08T00:29:32.919Z,22.36
2019-03-08T00:32:03.293Z,22.35
2019-03-08T00:34:33.514Z,22.33
2019-03-08T00:37:03.790Z,22.33
2019-03-08T00:39:33.996Z,22.32
2019-03-08T00:42:04.471Z,22.31
2019-03-08T00:44:34.833Z,22.34
2019-03-08T00:47:05.247Z,22.32
2019-03-08T00:49:35.464Z,22.33
2019-03-08T00:52:06.774Z,22.31
2019-03-08T00:54:37.180Z,22.34
2019-03-08T00:57:07.470Z,22.32
2019-03-08T00:59:37.775Z,22.29
2019-03-08T01:02:08.064Z,22.28
2019-03-08T01:04:38.370Z,22.27
2019-03-08T01:07:08.740Z,22.28
2019-03-08T01:09:40.152Z,22.27
2019-03-08T01:12:10.382Z,22.27
2019-03-08T01:14:40.813Z,22.30
2019-03-08T01:17:11.159Z,22.32
2019-03-08T01:19:41.585Z,22.30
2019-03-08T01:22:11.872Z,22.28
2019-03-08T01:24:42.131Z,22.30
2019-03-08T01:27:12.453Z,22.30
2019-03-08T01:29:42.678Z,22.28
2019-03-08T01:32:13.155Z,22.28
2019-03-08T01:34:43.393Z,22.27
2019-03-08T01:37:13.741Z,22.28
2019-03-08T01:39:44.032Z,22.28
2019-03-08T01:42:14.311Z,22.28
2019-03-08T01:44:44.731Z,22.30
2019-03-08T01:47:15.142Z,22.27
2019-03-08T01:49:45.463Z,22.28
2019-03-08T01:52:15.765Z,22.28
2019-03-08T01:54:48.408Z,22.27
2019-03-08T01:57:18.992Z,22.29
2019-03-08T01:59:49.315Z,22.25
2019-03-08T02:02:19.596Z,22.24
2019-03-08T02:04:49.904Z,22.24
2019-03-08T02:07:20.349Z,22.24
2019-03-08T02:09:50.896Z,22.20
2019-03-08T02:12:21.120Z,22.23
2019-03-08T02:14:51.561Z,22.19
2019-03-08T02:17:21.879Z,22.21
2019-03-08T02:19:52.234Z,22.22
2019-03-08T02:22:23.604Z,22.20
2019-03-08T02:24:54.107Z,22.17
2019-03-08T02:27:24.363Z,22.20
2019-03-08T02:29:54.671Z,22.20
2019-03-08T02:32:24.931Z,22.19
2019-03-08T02:34:56.339Z,22.23
2019-03-08T02:37:26.676Z,22.21
2019-03-08T02:39:57.038Z,22.20
2019-03-08T02:42:28.370Z,22.19
2019-03-08T02:44:58.578Z,22.21
2019-03-08T02:47:29.213Z,22.21
2019-03-08T02:49:59.470Z,22.21
2019-03-08T02:52:29.786Z,22.22
2019-03-08T02:55:00.403Z,22.22
2019-03-08T02:57:30.703Z,22.21
2019-03-08T03:00:00.971Z,22.19
2019-03-08T03:02:31.785Z,22.21
2019-03-08T03:05:02.243Z,22.20
2019-03-08T03:07:32.625Z,22.22
2019-03-08T03:10:02.927Z,22.20
2019-03-08T03:12:33.300Z,22.18
2019-03-08T03:15:03.624Z,22.18
2019-03-08T03:17:35.043Z,22.16
2019-03-08T03:20:06.248Z,22.13
2019-03-08T03:22:36.630Z,22.15
2019-03-08T03:25:07.009Z,22.16
2019-03-08T03:27:37.567Z,22.16
2019-03-08T03:30:08.351Z,22.18
2019-03-08T03:32:39.676Z,22.19
2019-03-08T03:35:09.996Z,22.18
2019-03-08T03:37:40.269Z,22.18
2019-03-08T03:40:11.413Z,22.18
2019-03-08T03:42:41.683Z,22.17
2019-03-08T03:45:12.189Z,22.17
2019-03-08T03:47:42.438Z,22.15
2019-03-08T03:50:12.701Z,22.14
2019-03-08T03:52:43.241Z,22.14
2019-03-08T03:55:14.884Z,22.14
2019-03-08T03:57:45.216Z,22.13
2019-03-08T04:00:16.325Z,22.12
2019-03-08T04:02:46.862Z,22.09
2019-03-08T04:05:18.281Z,22.10
2019-03-08T04:07:48.488Z,22.10
2019-03-08T04:10:18.765Z,22.10
2019-03-08T04:12:49.119Z,22.11
2019-03-08T04:15:20.441Z,22.11
2019-03-08T04:17:51.019Z,22.09
2019-03-08T04:20:21.270Z,22.12
2019-03-08T04:22:51.555Z,22.16
2019-03-08T04:25:21.881Z,22.16
2019-03-08T04:27:52.275Z,22.16
2019-03-08T04:30:22.931Z,22.12
2019-03-08T04:32:53.316Z,22.15
2019-03-08T04:35:23.544Z,22.14
2019-03-08T04:37:53.809Z,22.15
2019-03-08T04:40:24.125Z,22.14
2019-03-08T04:42:54.394Z,22.15
2019-03-08T04:45:24.751Z,22.12
2019-03-08T04:47:57.717Z,22.10
2019-03-08T04:50:31.016Z,22.11
2019-03-08T04:53:01.324Z,22.11
2019-03-08T04:55:31.946Z,22.11
2019-03-08T04:58:02.290Z,22.09
2019-03-08T05:00:32.612Z,22.09
2019-03-08T05:03:03.109Z,22.09
2019-03-08T05:05:33.449Z,22.09
2019-03-08T05:08:04.858Z,22.06
2019-03-08T05:10:35.200Z,22.08
2019-03-08T05:13:05.444Z,22.08
2019-03-08T05:15:35.826Z,22.10
2019-03-08T05:18:06.115Z,22.09
2019-03-08T05:20:36.404Z,22.08
2019-03-08T05:23:06.732Z,22.06
2019-03-08T05:25:37.638Z,22.05
2019-03-08T05:28:07.954Z,22.05
2019-03-08T05:30:38.226Z,22.04
2019-03-08T05:33:08.643Z,22.04
2019-03-08T05:35:38.874Z,22.04
2019-03-08T05:38:09.170Z,22.04
2019-03-08T05:40:39.464Z,22.04
2019-03-08T05:43:09.652Z,22.04
2019-03-08T05:45:39.977Z,22.08
2019-03-08T05:48:10.499Z,22.10
2019-03-08T05:50:40.709Z,22.10
2019-03-08T05:53:11.180Z,22.12
2019-03-08T05:55:41.410Z,22.11
2019-03-08T05:58:11.765Z,22.10
2019-03-08T06:00:42.112Z,22.12
2019-03-08T06:03:12.379Z,22.15
2019-03-08T06:05:42.852Z,22.13
2019-03-08T06:08:13.200Z,22.17
2019-03-08T06:10:43.414Z,22.19
2019-03-08T06:13:13.804Z,22.20
2019-03-08T06:15:44.428Z,22.21
2019-03-08T06:18:14.802Z,22.21
2019-03-08T06:20:45.122Z,22.20
2019-03-08T06:23:15.396Z,22.11
2019-03-08T06:25:45.698Z,22.11
2019-03-08T06:28:16.442Z,22.13
2019-03-08T06:30:46.738Z,22.18
2019-03-08T06:33:16.995Z,22.19
2019-03-08T06:35:47.784Z,22.20
2019-03-08T06:38:18.005Z,22.20
2019-03-08T06:40:48.318Z,22.23
2019-03-08T06:43:18.764Z,22.25
2019-03-08T06:45:49.227Z,22.25
2019-03-08T06:48:19.575Z,22.25
2019-03-08T06:50:49.957Z,22.27
2019-03-08T06:53:20.219Z,22.17
2019-03-08T06:55:51.293Z,22.15
2019-03-08T06:58:45.894Z,22.18
2019-03-08T07:01:23.084Z,22.24
2019-03-08T07:03:53.409Z,22.28
2019-03-08T07:06:23.681Z,22.30
2019-03-08T07:08:54.029Z,22.33
2019-03-08T07:11:24.293Z,22.34
2019-03-08T07:13:54.552Z,22.36
2019-03-08T07:16:25.221Z,22.40
2019-03-08T07:18:55.654Z,22.40
2019-03-08T07:21:44.828Z,22.42
2019-03-08T07:24:33.997Z,22.42
2019-03-08T07:27:34.278Z,22.42
2019-03-08T07:30:29.930Z,22.43
2019-03-08T07:33:17.890Z,22.44
2019-03-08T07:36:25.528Z,22.44
2019-03-08T07:39:14.841Z,22.43
2019-03-08T07:41:53.202Z,22.43
2019-03-08T07:44:35.657Z,22.45
2019-03-08T07:47:40.248Z,22.46
2019-03-08T07:50:43.507Z,22.48
2019-03-08T07:53:31.239Z,22.48
2019-03-08T07:56:20.543Z,22.49
2019-03-08T07:59:15.795Z,22.50
2019-03-08T08:02:13.969Z,22.51
2019-03-08T08:05:01.915Z,22.51
2019-03-08T08:07:57.628Z,22.52
2019-03-08T08:10:41.004Z,22.53
2019-03-08T08:13:42.251Z,22.54
2019-03-08T08:16:30.263Z,22.54
2019-03-08T08:19:19.453Z,22.54
2019-03-08T08:22:17.667Z,22.55
2019-03-08T08:25:09.981Z,22.55
2019-03-08T08:28:05.694Z,22.54
2019-03-08T08:30:47.816Z,22.55
2019-03-08T08:33:31.815Z,22.54
2019-03-08T08:36:20.969Z,22.57
2019-03-08T08:38:58.768Z,22.56
2019-03-08T08:41:47.414Z,22.57
2019-03-08T08:44:35.243Z,22.58
2019-03-08T08:47:27.496Z,22.57
2019-03-08T08:50:15.372Z,22.57
2019-03-08T08:53:13.704Z,22.57
2019-03-08T08:55:55.724Z,22.56
2019-03-08T08:58:25.101Z,22.56
2019-03-08T09:00:54.389Z,22.55
2019-03-08T09:03:23.631Z,22.55
2019-03-08T09:05:51.331Z,22.56
2019-03-08T09:08:19.353Z,22.55
2019-03-08T09:11:00.948Z,22.55
2019-03-08T09:13:56.212Z,22.55
2019-03-08T09:16:51.484Z,22.55
2019-03-08T09:19:43.775Z,22.53
2019-03-08T09:22:31.517Z,22.53
2019-03-08T09:25:19.591Z,22.52
2019-03-08T09:28:00.322Z,22.51
2019-03-08T09:30:38.499Z,22.52
2019-03-08T09:33:23.801Z,22.53
2019-03-08T09:36:19.593Z,22.50
2019-03-08T09:39:08.668Z,22.50
2019-03-08T09:42:00.996Z,22.49
2019-03-08T09:44:48.959Z,22.50
2019-03-08T09:47:29.644Z,22.50
2019-03-08T09:50:24.922Z,22.50
2019-03-08T09:53:17.224Z,22.50
2019-03-08T09:55:54.837Z,22.49
2019-03-08T09:58:46.929Z,22.49
2019-03-08T10:01:36.040Z,22.50
2019-03-08T10:04:27.986Z,22.47
2019-03-08T10:07:12.610Z,22.44
2019-03-08T10:09:53.535Z,22.42
2019-03-08T10:12:58.501Z,22.43
2019-03-08T10:15:34.403Z,22.43
2019-03-08T10:18:30.846Z,22.43
2019-03-08T10:21:32.181Z,22.40
2019-03-08T10:24:21.396Z,22.41
2019-03-08T10:27:10.520Z,22.43
2019-03-08T10:30:02.803Z,22.43
2019-03-08T10:32:54.733Z,22.42
2019-03-08T10:35:54.362Z,22.43
2019-03-08T10:38:49.494Z,22.45
2019-03-08T10:41:38.665Z,22.45
2019-03-08T10:44:22.939Z,22.47
2019-03-08T10:46:59.595Z,22.46
2019-03-08T10:49:37.381Z,22.47
2019-03-08T10:52:35.896Z,22.49
2019-03-08T10:55:27.752Z,22.48
2019-03-08T10:58:20.017Z,22.47
2019-03-08T11:01:02.295Z,22.46
2019-03-08T11:03:50.600Z,22.48
2019-03-08T11:06:42.606Z,22.48
2019-03-08T11:09:42.431Z,22.49
2019-03-08T11:12:37.636Z,22.52
2019-03-08T11:15:47.094Z,22.51
2019-03-08T11:18:34.927Z,22.50
2019-03-08T11:21:36.457Z,22.51
2019-03-08T11:24:24.116Z,22.51
2019-03-08T11:27:11.972Z,22.54
2019-03-08T11:30:00.448Z,22.53
2019-03-08T11:32:38.538Z,22.52
2019-03-08T11:35:24.279Z,22.52
2019-03-08T11:38:22.835Z,22.54
2019-03-08T11:41:21.165Z,22.53
2019-03-08T11:44:16.244Z,22.54
2019-03-08T11:47:04.273Z,22.53
2019-03-08T11:49:54.466Z,22.54
2019-03-08T11:52:42.221Z,22.53
2019-03-08T11:55:31.693Z,22.54
2019-03-08T11:58:22.014Z,22.55
2019-03-08T12:01:13.974Z,22.55
2019-03-08T12:04:01.998Z,22.56
2019-03-08T12:06:47.786Z,22.55
2019-03-08T12:09:35.595Z,22.55
2019-03-08T12:12:32.288Z,22.54
2019-03-08T12:15:20.174Z,22.56
2019-03-08T12:18:21.690Z,22.56
2019-03-08T12:21:13.765Z,22.55
2019-03-08T12:24:16.947Z,22.55
2019-03-08T12:27:01.871Z,22.56
2019-03-08T12:29:46.274Z,22.57
2019-03-08T12:32:29.042Z,22.58
2019-03-08T12:35:08.548Z,22.58
2019-03-08T12:38:07.048Z,22.59
2019-03-08T12:40:55.035Z,22.58
2019-03-08T12:43:57.255Z,22.58
2019-03-08T12:46:40.547Z,22.59
2019-03-08T12:49:44.864Z,22.60
2019-03-08T12:52:24.789Z,22.60
2019-03-08T12:55:14.188Z,22.58
2019-03-08T12:57:52.689Z,22.60
2019-03-08T13:00:41.863Z,22.58
2019-03-08T13:03:30.081Z,22.60
2019-03-08T13:06:18.420Z,22.59
2019-03-08T13:09:07.605Z,22.58
2019-03-08T13:11:38.340Z,22.59
2019-03-08T13:14:08.641Z,22.60
2019-03-08T13:16:38.982Z,22.60
2019-03-08T13:19:09.270Z,22.60
2019-03-08T13:21:39.627Z,22.62
2019-03-08T13:24:10.121Z,22.62
2019-03-08T13:26:40.365Z,22.61
2019-03-08T13:29:10.625Z,22.63
2019-03-08T13:31:40.835Z,22.62
2019-03-08T13:34:11.180Z,22.61
2019-03-08T13:36:41.561Z,22.62
2019-03-08T13:39:12.682Z,22.63
2019-03-08T13:41:42.969Z,22.64
2019-03-08T13:44:13.267Z,22.64
2019-03-08T13:46:43.475Z,22.65
2019-03-08T13:49:13.883Z,22.63
2019-03-08T13:51:44.138Z,22.64
2019-03-08T13:54:14.435Z,22.64
2019-03-08T13:56:44.668Z,22.63
2019-03-08T13:59:14.923Z,22.64
2019-03-08T14:01:45.212Z,22.64
2019-03-08T14:04:15.734Z,22.63
2019-03-08T14:06:46.036Z,22.64
2019-03-08T14:09:16.244Z,22.63
2019-03-08T14:11:46.611Z,22.63
2019-03-08T14:14:17.987Z,22.63
2019-03-08T14:16:48.470Z,22.64
2019-03-08T14:19:18.689Z,22.63
2019-03-08T14:21:48.952Z,22.64
2019-03-08T14:24:19.238Z,22.64
2019-03-08T14:26:49.611Z,22.64
2019-03-08T14:29:22.254Z,22.64
2019-03-08T14:31:59.839Z,22.65
2019-03-08T14:34:30.226Z,22.65
2019-03-08T14:37:02.491Z,22.65
2019-03-08T14:39:32.858Z,22.66
2019-03-08T14:42:20.504Z,22.65
2019-03-08T14:44:58.924Z,22.67
2019-03-08T14:47:35.699Z,22.66
2019-03-08T14:50:07.425Z,22.66
2019-03-08T14:52:39.300Z,22.65
2019-03-08T14:55:12.234Z,22.65
2019-03-08T14:57:42.602Z,22.63
2019-03-08T15:00:18.110Z,22.64
2019-03-08T15:02:48.691Z,22.63
2019-03-08T15:05:20.395Z,22.64
2019-03-08T15:07:52.020Z,22.63
2019-03-08T15:10:22.278Z,22.63
2019-03-08T15:12:55.414Z,22.64
2019-03-08T15:15:25.833Z,22.65
2019-03-08T15:17:56.263Z,22.65
2019-03-08T15:20:26.630Z,22.63
2019-03-08T15:22:56.886Z,22.62
2019-03-08T15:25:29.689Z,22.64
2019-03-08T15:27:59.284Z,22.63
2019-03-08T15:30:29.602Z,22.63
2019-03-08T15:33:02.999Z,22.64
2019-03-08T15:35:33.372Z,22.64
2019-03-08T15:38:03.618Z,22.64
2019-03-08T15:40:34.946Z,22.65
2019-03-08T15:43:09.584Z,22.64
2019-03-08T15:45:40.139Z,22.65
2019-03-08T15:48:11.045Z,22.63
2019-03-08T15:50:42.788Z,22.63
2019-03-08T15:53:14.380Z,22.64
2019-03-08T15:55:52.446Z,22.63
2019-03-08T15:58:17.328Z,22.63
2019-03-08T16:00:47.652Z,22.63
2019-03-08T16:03:17.953Z,22.63
2019-03-08T16:05:48.274Z,22.63
2019-03-08T16:08:18.541Z,22.62
2019-03-08T16:10:48.752Z,22.61
2019-03-08T16:13:19.415Z,22.62
2019-03-08T16:15:49.731Z,22.62
2019-03-08T16:18:20.073Z,22.62
2019-03-08T16:20:50.295Z,22.62
2019-03-08T16:23:21.316Z,22.60
2019-03-08T16:25:51.767Z,22.60
2019-03-08T16:28:22.119Z,22.62
2019-03-08T16:30:58.512Z,22.62
2019-03-08T16:33:37.294Z,22.62
2019-03-08T16:36:18.850Z,22.62
2019-03-08T16:38:58.871Z,22.61
2019-03-08T16:41:51.083Z,22.61
2019-03-08T16:44:42.738Z,22.62
2019-03-08T16:47:37.694Z,22.62
2019-03-08T16:50:33.208Z,22.62
2019-03-08T16:53:21.137Z,22.61
2019-03-08T16:56:08.605Z,22.61
2019-03-08T16:58:59.535Z,22.61
2019-03-08T17:01:54.904Z,22.61
2019-03-08T17:04:44.165Z,22.60
2019-03-08T17:07:39.080Z,22.60
2019-03-08T17:10:46.668Z,22.60
2019-03-08T17:13:35.795Z,22.60
2019-03-08T17:16:23.783Z,22.59
2019-03-08T17:19:25.051Z,22.61
2019-03-08T17:22:04.562Z,22.61
2019-03-08T17:24:59.718Z,22.60
2019-03-08T17:27:39.889Z,22.60
2019-03-08T17:30:19.521Z,22.59
2019-03-08T17:33:08.393Z,22.61
2019-03-08T17:36:00.484Z,22.60
2019-03-08T17:38:38.866Z,22.69
2019-03-08T17:41:26.699Z,22.65
2019-03-08T17:44:22.016Z,22.61
2019-03-08T17:47:11.855Z,22.43
2019-03-08T17:50:01.206Z,22.22
2019-03-08T17:52:59.885Z,22.16
2019-03-08T17:55:47.784Z,22.22
2019-03-08T17:58:35.568Z,22.28
2019-03-08T18:01:23.406Z,22.33
2019-03-08T18:04:27.700Z,22.29
2019-03-08T18:07:35.197Z,22.32
2019-03-08T18:10:23.209Z,22.30
2019-03-08T18:13:24.384Z,22.28
2019-03-08T18:16:19.707Z,22.31
2019-03-08T18:19:24.373Z,22.28
2019-03-08T18:22:02.807Z,22.31
2019-03-08T18:25:11.596Z,22.35
2019-03-08T18:28:12.684Z,22.33
2019-03-08T18:31:11.125Z,22.33
2019-03-08T18:33:59.991Z,22.33
2019-03-08T18:36:39.577Z,22.30
2019-03-08T18:39:22.527Z,22.36
2019-03-08T18:42:17.879Z,22.33
2019-03-08T18:45:05.010Z,22.31
2019-03-08T18:47:48.398Z,22.32
2019-03-08T18:50:46.617Z,22.33
2019-03-08T18:53:29.319Z,22.30
2019-03-08T18:56:21.460Z,22.27
2019-03-08T18:59:08.372Z,22.25
2019-03-08T19:02:07.013Z,22.28
2019-03-08T19:04:53.764Z,22.31
2019-03-08T19:07:45.785Z,22.31
2019-03-08T19:10:37.831Z,22.27
2019-03-08T19:13:25.832Z,22.25
2019-03-08T19:16:21.208Z,22.26
2019-03-08T19:19:10.423Z,22.26
2019-03-08T19:21:55.714Z,22.27
2019-03-08T19:24:48.117Z,22.31
2019-03-08T19:27:36.078Z,22.31
2019-03-08T19:30:25.364Z,22.31
2019-03-08T19:33:15.361Z,22.31
2019-03-08T19:36:07.151Z,22.29
2019-03-08T19:39:01.465Z,22.28
2019-03-08T19:41:55.035Z,22.30
2019-03-08T19:44:47.283Z,22.29
2019-03-08T19:47:33.579Z,22.28
2019-03-08T19:50:29.096Z,22.25
2019-03-08T19:53:18.383Z,22.27
2019-03-08T19:56:08.913Z,22.24
2019-03-08T19:58:58.423Z,22.28
2019-03-08T20:01:49.752Z,22.29
2019-03-08T20:04:39.235Z,22.30
2019-03-08T20:07:30.705Z,22.25
2019-03-08T20:10:32.153Z,22.26
2019-03-08T20:13:29.678Z,22.29
2019-03-08T20:16:23.646Z,22.30
2019-03-08T20:19:04.663Z,22.30
2019-03-08T20:22:00.157Z,22.31
2019-03-08T20:24:48.251Z,22.32
2019-03-08T20:27:40.530Z,22.33
2019-03-08T20:30:29.654Z,22.31
2019-03-08T20:33:38.921Z,22.31
2019-03-08T20:36:18.170Z,22.30
2019-03-08T20:38:57.416Z,22.29
2019-03-08T20:41:59.453Z,22.27
2019-03-08T20:44:52.654Z,22.27
2019-03-08T20:47:26.305Z,22.31
2019-03-08T20:49:56.688Z,22.32
2019-03-08T20:52:27.186Z,22.33
2019-03-08T20:55:01.306Z,22.36
2019-03-08T20:57:32.842Z,22.37
2019-03-08T21:00:03.158Z,22.36
2019-03-08T21:02:35.024Z,22.37
2019-03-08T21:05:05.706Z,22.36
2019-03-08T21:07:36.058Z,22.35
2019-03-08T21:10:08.327Z,22.35
2019-03-08T21:12:40.274Z,22.36
2019-03-08T21:15:13.768Z,22.37
2019-03-08T21:17:47.467Z,22.36
2019-03-08T21:20:19.561Z,22.35
2019-03-08T21:22:51.775Z,22.34
2019-03-08T21:25:24.766Z,22.36
2019-03-08T21:27:55.168Z,22.35
2019-03-08T21:30:28.006Z,22.34
2019-03-08T21:32:58.348Z,22.36
2019-03-08T21:35:29.148Z,22.33
2019-03-08T21:37:59.502Z,22.32
2019-03-08T21:40:29.882Z,22.34
2019-03-08T21:43:00.376Z,22.32
2019-03-08T21:45:30.705Z,22.33
2019-03-08T21:48:01.223Z,22.33
2019-03-08T21:50:32.585Z,22.36
2019-03-08T21:53:02.914Z,22.35
2019-03-08T21:55:33.314Z,22.35
2019-03-08T21:58:03.698Z,22.35
2019-03-08T22:00:34.067Z,22.37
2019-03-08T22:03:04.405Z,22.34
2019-03-08T22:05:36.492Z,22.34
2019-03-08T22:08:16.467Z,22.34
2019-03-08T22:10:55.597Z,22.34
2019-03-08T22:13:25.875Z,22.34
2019-03-08T22:15:56.144Z,22.33
2019-03-08T22:18:26.513Z,22.34
2019-03-08T22:20:57.616Z,22.34
2019-03-08T22:23:28.961Z,22.33
2019-03-08T22:25:59.198Z,22.33
2019-03-08T22:28:29.489Z,22.32
2019-03-08T22:30:59.766Z,22.32
2019-03-08T22:33:30.038Z,22.30
2019-03-08T22:36:01.120Z,22.28
2019-03-08T22:38:31.474Z,22.27
2019-03-08T22:41:01.784Z,22.25
2019-03-08T22:43:32.087Z,22.28
2019-03-08T22:46:02.483Z,22.26
2019-03-08T22:48:32.868Z,22.26
2019-03-08T22:51:03.163Z,22.25
2019-03-08T22:53:33.365Z,22.24
2019-03-08T22:56:03.870Z,22.25
2019-03-08T22:58:34.142Z,22.25
2019-03-08T23:01:10.781Z,22.23
2019-03-08T23:03:42.701Z,22.24
2019-03-08T23:06:12.953Z,22.24
2019-03-08T23:08:43.234Z,22.26
2019-03-08T23:11:13.509Z,22.27
2019-03-08T23:13:43.850Z,22.25
2019-03-08T23:16:14.090Z,22.22
2019-03-08T23:18:44.683Z,22.21
2019-03-08T23:21:14.932Z,22.21
2019-03-08T23:23:45.262Z,22.22
2019-03-08T23:26:15.558Z,22.19
2019-03-08T23:29:08.372Z,22.20
2019-03-08T23:31:57.566Z,22.19
2019-03-08T23:34:27.970Z,22.19
2019-03-08T23:36:58.215Z,22.17
2019-03-08T23:39:28.596Z,22.17
2019-03-08T23:41:58.801Z,22.16
2019-03-08T23:44:29.149Z,22.16
2019-03-08T23:46:59.724Z,22.17
2019-03-08T23:49:30.084Z,22.17
2019-03-08T23:52:00.397Z,22.16
2019-03-08T23:54:30.685Z,22.16
2019-03-08T23:57:00.999Z,22.15
2019-03-08T23:59:32.783Z,22.16
